Terminal Aerodrome Forecast
Issued by NWS Albany, NY

Home | Current Version | Previous Version | Text Only | Print | Product List | Glossary On
Versions: 1 2 3 4 5 6 7 8 9 10 11 12 13 14 15 16 17 18 19 20 21 22
123
FTUS41 KALY 190537
TAFGFL
TAF
KGFL 190537Z 1906/2006 18003KT 2SM BR VCSH OVC003
      TEMPO 1908/1912 5SM BR SCT003 OVC015
     FM191300 20004KT 4SM BR OVC015
     FM191800 22005KT P6SM BKN025
     FM192200 36005KT P6SM BKN025=

USA.gov is the U.S. government's official web portal to all federal, state and local government web resources and services.